createdAt,value
2019-03-21T00:00:17.545Z,70.19
2019-03-21T00:02:45.400Z,70.19
2019-03-21T00:05:13.260Z,69.98
2019-03-21T00:07:59.950Z,69.76
2019-03-21T00:10:31.004Z,69.76
2019-03-21T00:18:51.965Z,70.51
2019-03-21T00:24:11.941Z,70.58
2019-03-21T00:26:58.409Z,70.47
2019-03-21T00:29:26.177Z,70.42
2019-03-21T00:32:12.666Z,71.18
2019-03-21T00:34:40.480Z,71.18
2019-03-21T00:37:26.855Z,70.95
2019-03-21T00:40:13.287Z,70.51
2019-03-21T00:43:11.882Z,70.64
2019-03-21T00:45:29.400Z,70.64
2019-03-21T00:48:15.878Z,71.24
2019-03-21T00:53:49.055Z,70.91
2019-03-21T00:59:03.409Z,71.22
2019-03-21T01:01:49.841Z,71.20
2019-03-21T01:04:17.751Z,71.06
2019-03-21T01:07:04.158Z,70.91
2019-03-21T01:09:32.211Z,70.91
2019-03-21T01:12:18.856Z,70.90
2019-03-21T01:17:39.066Z,70.78
2019-03-21T01:22:39.588Z,71.11
2019-03-21T01:25:26.068Z,71.67
2019-03-21T01:30:59.027Z,71.17
2019-03-21T01:33:45.443Z,71.40
2019-03-21T01:36:32.155Z,71.53
2019-03-21T01:47:11.363Z,71.94
2019-03-21T01:49:58.154Z,72.43
2019-03-21T01:52:44.842Z,72.41
2019-03-21T01:57:45.980Z,72.21
2019-03-21T02:03:00.329Z,72.01
2019-03-21T02:05:28.614Z,72.01
2019-03-21T02:08:15.322Z,72.48
2019-03-21T02:16:08.197Z,72.28
2019-03-21T02:18:54.643Z,72.19
2019-03-21T02:21:41.099Z,71.99
2019-03-21T02:27:14.025Z,72.35
2019-03-21T02:32:46.926Z,71.92
2019-03-21T02:37:47.878Z,72.32
2019-03-21T02:40:34.300Z,72.23
2019-03-21T02:45:53.419Z,72.72
2019-03-21T02:48:21.222Z,72.72
2019-03-21T02:51:07.671Z,72.08
2019-03-21T02:53:35.497Z,72.08
2019-03-21T02:56:03.229Z,72.36
2019-03-21T02:58:49.701Z,72.67
2019-03-21T03:01:36.070Z,72.11
2019-03-21T03:06:55.244Z,72.71
2019-03-21T03:09:42.001Z,72.45
2019-03-21T03:15:22.654Z,72.23
2019-03-21T03:20:51.180Z,72.24
2019-03-21T03:28:44.251Z,72.13
2019-03-21T03:31:30.685Z,72.13
2019-03-21T03:34:17.066Z,72.00
2019-03-21T03:39:37.247Z,72.18
2019-03-21T03:42:24.036Z,72.06
2019-03-21T03:45:10.413Z,72.79
2019-03-21T03:47:38.083Z,72.42
2019-03-21T03:50:24.367Z,72.42
2019-03-21T03:52:52.160Z,72.76
2019-03-21T03:55:38.507Z,72.81
2019-03-21T03:58:06.222Z,72.81
2019-03-21T04:00:33.925Z,72.93
2019-03-21T04:03:20.634Z,73.28
2019-03-21T04:06:07.054Z,72.58
2019-03-21T04:08:34.747Z,72.79
2019-03-21T04:11:21.190Z,72.70
2019-03-21T04:13:48.778Z,72.70
2019-03-21T04:16:35.161Z,72.98
2019-03-21T04:19:21.570Z,73.50
2019-03-21T04:21:49.183Z,73.50
2019-03-21T04:24:35.618Z,72.70
2019-03-21T04:27:03.235Z,73.34
2019-03-21T04:29:49.567Z,73.34
2019-03-21T04:32:35.860Z,72.97
2019-03-21T04:37:36.661Z,73.28
2019-03-21T04:40:04.267Z,73.27
2019-03-21T04:42:31.923Z,73.66
2019-03-21T04:45:18.244Z,73.66
2019-03-21T04:47:45.939Z,73.29
2019-03-21T04:50:32.624Z,73.66
2019-03-21T04:53:19.009Z,73.43
2019-03-21T04:55:46.597Z,73.43
2019-03-21T04:58:32.900Z,73.54
2019-03-21T05:01:19.337Z,73.40
2019-03-21T05:04:05.990Z,72.92
2019-03-21T05:09:07.110Z,73.81
2019-03-21T05:11:53.498Z,73.57
2019-03-21T05:14:39.907Z,73.90
2019-03-21T05:17:26.235Z,73.90
2019-03-21T05:19:53.727Z,73.62
2019-03-21T05:22:40.141Z,73.62
2019-03-21T05:25:26.584Z,73.74
2019-03-21T05:28:12.965Z,73.74
2019-03-21T05:31:01.416Z,73.35
2019-03-21T05:33:47.777Z,73.35
2019-03-21T05:36:15.318Z,73.44
2019-03-21T05:39:01.742Z,73.41
2019-03-21T05:41:48.133Z,72.96
2019-03-21T05:44:36.439Z,72.86
2019-03-21T05:47:04.138Z,72.86
2019-03-21T05:49:31.804Z,73.12
2019-03-21T05:52:18.254Z,73.36
2019-03-21T05:55:04.632Z,73.49
2019-03-21T05:57:51.033Z,73.49
2019-03-21T06:03:25.366Z,72.99
2019-03-21T06:08:46.292Z,72.91
2019-03-21T06:19:35.766Z,72.22
2019-03-21T06:22:03.315Z,72.47
2019-03-21T06:24:49.649Z,72.47
2019-03-21T06:27:17.674Z,71.67
2019-03-21T06:30:04.118Z,72.22
2019-03-21T06:32:31.837Z,72.22
2019-03-21T06:35:18.272Z,71.48
2019-03-21T06:37:46.004Z,71.48
2019-03-21T06:40:32.400Z,71.33
2019-03-21T06:43:18.835Z,71.96
2019-03-21T06:46:05.226Z,71.96
2019-03-21T06:48:32.846Z,71.39
2019-03-21T06:51:19.254Z,71.19
2019-03-21T06:53:46.935Z,71.04
2019-03-21T06:56:33.366Z,71.02
2019-03-21T06:59:01.389Z,71.02
2019-03-21T07:01:28.978Z,70.59
2019-03-21T07:04:15.391Z,70.48
2019-03-21T07:06:43.026Z,70.30
2019-03-21T07:09:29.484Z,70.14
2019-03-21T07:12:15.827Z,69.79
2019-03-21T07:15:04.398Z,69.79
2019-03-21T07:17:50.329Z,68.72
2019-03-21T07:20:36.772Z,69.19
2019-03-21T07:23:25.882Z,68.94
2019-03-21T07:26:12.254Z,68.94
2019-03-21T07:31:33.794Z,67.93
2019-03-21T07:34:15.139Z,67.93
2019-03-21T07:36:32.881Z,67.33
2019-03-21T07:44:28.473Z,67.53
2019-03-21T07:47:14.887Z,67.01
2019-03-21T07:50:01.277Z,67.01
2019-03-21T07:52:29.387Z,66.93
2019-03-21T07:55:15.741Z,66.83
2019-03-21T07:58:02.076Z,66.65
2019-03-21T08:00:48.514Z,65.93
2019-03-21T08:04:05.281Z,65.65
2019-03-21T08:06:22.931Z,65.65
2019-03-21T08:08:50.550Z,65.24
2019-03-21T08:11:36.903Z,64.51
2019-03-21T08:14:23.355Z,64.34
2019-03-21T08:17:09.711Z,64.34
2019-03-21T08:22:30.229Z,63.10
2019-03-21T08:24:57.853Z,63.10
2019-03-21T08:27:44.299Z,62.88
2019-03-21T08:30:11.955Z,62.47
2019-03-21T08:32:58.367Z,62.05
2019-03-21T08:35:25.923Z,61.35
2019-03-21T08:38:12.267Z,61.35
2019-03-21T08:40:42.474Z,61.28
2019-03-21T08:43:09.370Z,60.73
2019-03-21T08:45:39.806Z,60.46
2019-03-21T08:48:07.367Z,60.46
2019-03-21T08:50:35.456Z,59.88
2019-03-21T08:53:03.160Z,59.42
2019-03-21T08:55:30.762Z,59.42
2019-03-21T08:57:58.736Z,59.05
2019-03-21T09:00:34.097Z,58.63
2019-03-21T09:02:55.690Z,58.11
2019-03-21T09:05:23.726Z,58.11
2019-03-21T09:07:52.742Z,58.16
2019-03-21T09:10:20.360Z,57.02
2019-03-21T09:12:48.347Z,57.01
2019-03-21T09:15:15.897Z,57.01
2019-03-21T09:17:43.460Z,56.41
2019-03-21T09:20:15.974Z,56.02
2019-03-21T09:22:48.247Z,55.69
2019-03-21T09:25:14.316Z,55.38
2019-03-21T09:27:42.295Z,55.18
2019-03-21T09:30:10.905Z,54.97
2019-03-21T09:32:40.162Z,53.98
2019-03-21T09:35:09.356Z,54.22
2019-03-21T09:37:36.945Z,54.22
2019-03-21T09:40:04.463Z,54.33
2019-03-21T09:42:32.936Z,54.57
2019-03-21T09:45:02.861Z,54.97
2019-03-21T09:47:30.705Z,55.90
2019-03-21T09:49:59.398Z,55.54
2019-03-21T09:52:36.177Z,55.65
2019-03-21T09:55:03.750Z,55.65
2019-03-21T09:57:32.853Z,55.13
2019-03-21T10:00:00.412Z,53.94
2019-03-21T10:02:28.091Z,52.67
2019-03-21T10:04:55.993Z,51.72
2019-03-21T10:07:23.957Z,49.42
2019-03-21T10:09:51.522Z,49.42
2019-03-21T10:12:23.275Z,48.54
2019-03-21T10:14:50.859Z,47.61
2019-03-21T10:17:18.490Z,46.66
2019-03-21T10:19:48.385Z,45.67
2019-03-21T10:22:15.740Z,45.67
2019-03-21T10:24:43.243Z,45.15
2019-03-21T10:27:11.156Z,44.57
2019-03-21T10:29:38.776Z,43.55
2019-03-21T10:32:14.125Z,43.41
2019-03-21T10:34:36.006Z,42.75
2019-03-21T10:37:03.557Z,42.17
2019-03-21T10:39:32.355Z,41.79
2019-03-21T10:42:00.221Z,41.85
2019-03-21T10:44:29.334Z,41.49
2019-03-21T10:46:56.992Z,41.49
2019-03-21T10:49:25.047Z,40.69
2019-03-21T10:51:55.217Z,40.69
2019-03-21T10:54:23.699Z,40.77
2019-03-21T10:56:51.634Z,40.81
2019-03-21T10:59:19.164Z,39.90
2019-03-21T11:01:46.727Z,39.90
2019-03-21T11:04:14.638Z,40.20
2019-03-21T11:06:42.623Z,40.20
2019-03-21T11:09:10.223Z,39.95
2019-03-21T11:11:39.830Z,39.95
2019-03-21T11:14:07.427Z,40.07
2019-03-21T11:16:37.831Z,40.07
2019-03-21T11:19:05.756Z,39.15
2019-03-21T11:21:35.014Z,39.24
2019-03-21T11:24:02.525Z,39.05
2019-03-21T11:26:32.962Z,39.03
2019-03-21T11:29:03.829Z,38.43
2019-03-21T11:31:31.408Z,38.43
2019-03-21T11:33:59.278Z,38.29
2019-03-21T11:36:37.681Z,37.48
2019-03-21T11:38:56.138Z,37.41
2019-03-21T11:41:25.612Z,37.53
2019-03-21T11:43:56.323Z,37.75
2019-03-21T11:46:24.425Z,37.75
2019-03-21T11:48:55.010Z,38.48
2019-03-21T11:51:22.607Z,38.59
2019-03-21T11:53:50.702Z,38.40
2019-03-21T11:56:20.089Z,38.57
2019-03-21T11:58:54.850Z,38.57
2019-03-21T12:01:23.209Z,38.15
2019-03-21T12:03:50.851Z,37.82
2019-03-21T12:06:18.592Z,37.37
2019-03-21T12:08:46.673Z,37.12
2019-03-21T12:11:14.236Z,37.44
2019-03-21T12:13:41.838Z,37.00
2019-03-21T12:16:09.859Z,37.00
2019-03-21T12:18:37.449Z,36.59
2019-03-21T12:21:05.123Z,35.56
2019-03-21T12:23:33.111Z,35.77
2019-03-21T12:26:01.016Z,35.27
2019-03-21T12:28:36.014Z,35.05
2019-03-21T12:31:03.952Z,35.05
2019-03-21T12:33:34.568Z,34.55
2019-03-21T12:36:04.968Z,33.91
2019-03-21T12:38:32.913Z,33.64
2019-03-21T12:41:00.922Z,33.93
2019-03-21T12:43:28.598Z,34.22
2019-03-21T12:45:56.477Z,34.26
2019-03-21T12:48:25.256Z,34.60
2019-03-21T12:50:52.842Z,34.78
2019-03-21T12:53:20.753Z,35.35
2019-03-21T12:55:48.391Z,36.41
2019-03-21T12:58:15.986Z,36.41
2019-03-21T13:00:45.832Z,36.78
2019-03-21T13:03:13.135Z,37.99
2019-03-21T13:05:43.495Z,39.44
2019-03-21T13:08:14.338Z,40.78
2019-03-21T13:10:41.931Z,41.84
2019-03-21T13:13:09.579Z,42.75
2019-03-21T13:15:37.433Z,43.38
2019-03-21T13:18:08.050Z,43.87
2019-03-21T13:20:38.923Z,44.48
2019-03-21T13:23:11.788Z,44.87
2019-03-21T13:25:39.476Z,45.43
2019-03-21T13:33:05.170Z,46.43
2019-03-21T13:35:33.264Z,46.77
2019-03-21T13:38:01.205Z,46.86
2019-03-21T13:40:28.893Z,46.55
2019-03-21T13:42:56.727Z,46.56
2019-03-21T13:45:24.615Z,46.77
2019-03-21T13:47:53.209Z,46.92
2019-03-21T13:50:22.838Z,47.13
2019-03-21T13:53:03.948Z,47.13
2019-03-21T13:55:22.475Z,46.57
2019-03-21T13:57:55.650Z,46.43
2019-03-21T14:00:23.780Z,46.43
2019-03-21T14:02:51.389Z,45.17
2019-03-21T14:05:21.061Z,45.17
2019-03-21T14:07:48.607Z,44.83
2019-03-21T14:10:19.582Z,44.46
2019-03-21T14:12:47.513Z,44.23
2019-03-21T14:15:17.866Z,44.20
2019-03-21T14:17:45.516Z,44.56
2019-03-21T14:20:13.562Z,45.32
2019-03-21T14:22:41.120Z,45.32
2019-03-21T14:25:14.781Z,44.97
2019-03-21T14:27:42.775Z,44.97
2019-03-21T14:30:13.541Z,44.79
2019-03-21T14:32:47.184Z,44.27
2019-03-21T14:35:12.645Z,44.27
2019-03-21T14:37:43.488Z,44.34
2019-03-21T14:40:13.933Z,43.79
2019-03-21T14:42:41.656Z,43.48
2019-03-21T14:45:09.300Z,43.48
2019-03-21T14:47:37.404Z,42.87
2019-03-21T14:50:07.265Z,42.87
2019-03-21T14:52:34.897Z,42.57
2019-03-21T14:55:04.354Z,42.46
2019-03-21T14:57:34.743Z,42.35
2019-03-21T15:00:02.432Z,41.35
2019-03-21T15:02:30.566Z,41.35
2019-03-21T15:04:58.124Z,41.16
2019-03-21T15:07:25.795Z,40.41
2019-03-21T15:09:53.849Z,40.21
2019-03-21T15:12:23.792Z,40.21
2019-03-21T15:14:51.718Z,40.28
2019-03-21T15:17:22.697Z,40.14
2019-03-21T15:19:50.269Z,40.14
2019-03-21T15:22:17.899Z,39.11
2019-03-21T15:24:46.198Z,39.11
2019-03-21T15:27:17.671Z,38.25
2019-03-21T15:29:46.633Z,38.10
2019-03-21T15:32:14.656Z,38.10
2019-03-21T15:34:42.292Z,37.62
2019-03-21T15:40:01.527Z,37.23
2019-03-21T15:42:29.176Z,37.00
2019-03-21T15:45:27.769Z,36.63
2019-03-21T15:50:38.542Z,36.94
2019-03-21T15:56:12.526Z,37.72
2019-03-21T16:01:32.056Z,37.88
2019-03-21T16:04:18.477Z,37.75
2019-03-21T16:07:04.842Z,38.24
2019-03-21T16:09:32.592Z,40.18
2019-03-21T16:15:19.327Z,44.13
2019-03-21T16:17:36.335Z,45.82
2019-03-21T16:23:02.007Z,49.25
2019-03-21T16:25:48.652Z,49.25
2019-03-21T16:28:29.755Z,49.42
2019-03-21T16:30:47.470Z,49.99
2019-03-21T16:33:15.181Z,50.53
2019-03-21T16:35:45.258Z,50.99
2019-03-21T16:38:13.171Z,51.34
2019-03-21T16:40:40.792Z,52.35
2019-03-21T16:43:08.327Z,52.35
2019-03-21T16:45:37.832Z,52.78
2019-03-21T16:48:09.308Z,52.47
2019-03-21T16:50:40.371Z,52.47
2019-03-21T16:53:09.974Z,52.73
2019-03-21T16:55:37.931Z,53.46
2019-03-21T16:58:13.020Z,53.46
2019-03-21T17:00:40.624Z,53.13
2019-03-21T17:03:11.475Z,53.13
2019-03-21T17:05:39.121Z,53.12
2019-03-21T17:08:11.655Z,53.16
2019-03-21T17:10:36.345Z,53.93
2019-03-21T17:13:05.116Z,53.45
2019-03-21T17:15:33.903Z,54.02
2019-03-21T17:18:01.920Z,54.02
2019-03-21T17:20:29.480Z,54.32
2019-03-21T17:23:02.144Z,54.32
2019-03-21T17:25:31.589Z,54.65
2019-03-21T17:28:00.168Z,54.65
2019-03-21T17:30:29.702Z,54.82
2019-03-21T17:32:57.644Z,55.17
2019-03-21T17:35:25.592Z,55.17
2019-03-21T17:37:53.188Z,55.70
2019-03-21T17:40:21.304Z,55.70
2019-03-21T17:42:53.999Z,55.69
2019-03-21T17:45:21.513Z,55.86
2019-03-21T17:47:49.281Z,56.04
2019-03-21T17:50:16.794Z,56.21
2019-03-21T17:52:44.295Z,56.37
2019-03-21T17:55:12.357Z,56.53
2019-03-21T17:57:44.007Z,56.70
2019-03-21T18:00:11.731Z,56.82
2019-03-21T18:02:40.673Z,56.96
2019-03-21T18:05:08.207Z,57.08
2019-03-21T18:07:35.819Z,57.19
2019-03-21T18:10:06.163Z,57.29
2019-03-21T18:12:33.764Z,57.40
2019-03-21T18:15:01.280Z,57.52
2019-03-21T18:17:29.311Z,57.80
2019-03-21T18:19:57.243Z,57.80
2019-03-21T18:22:25.757Z,57.93
2019-03-21T18:24:54.279Z,58.05
2019-03-21T18:27:21.893Z,58.19
2019-03-21T18:29:49.812Z,58.42
2019-03-21T18:32:21.462Z,58.42
2019-03-21T18:34:49.059Z,58.69
2019-03-21T18:37:16.575Z,58.69
2019-03-21T18:39:47.635Z,58.79
2019-03-21T18:42:15.257Z,58.90
2019-03-21T18:44:45.866Z,58.99
2019-03-21T18:47:13.883Z,59.07
2019-03-21T18:49:41.506Z,59.28
2019-03-21T18:52:09.117Z,59.33
2019-03-21T18:54:37.116Z,59.33
2019-03-21T18:57:04.697Z,59.46
2019-03-21T18:59:32.257Z,59.53
2019-03-21T19:02:02.778Z,59.61
2019-03-21T19:04:31.473Z,59.71
2019-03-21T19:06:59.122Z,59.83
2019-03-21T19:09:27.097Z,59.94
2019-03-21T19:11:54.645Z,60.06
2019-03-21T19:14:24.076Z,60.14
2019-03-21T19:16:54.631Z,60.14
2019-03-21T19:19:22.165Z,60.14
2019-03-21T19:21:49.723Z,60.23
2019-03-21T19:24:17.584Z,60.29
2019-03-21T19:26:45.213Z,60.20
2019-03-21T19:29:14.971Z,60.20
2019-03-21T19:31:47.829Z,60.27
2019-03-21T19:34:15.318Z,60.43
2019-03-21T19:36:43.294Z,60.43
2019-03-21T19:39:10.877Z,60.36
2019-03-21T19:41:38.522Z,60.22
2019-03-21T19:44:09.551Z,60.35
2019-03-21T19:46:37.127Z,60.35
2019-03-21T19:49:09.969Z,60.32
2019-03-21T19:51:38.251Z,60.43
2019-03-21T19:54:05.868Z,60.92
2019-03-21T19:56:33.500Z,60.92
2019-03-21T19:59:01.457Z,60.72
2019-03-21T20:01:29.061Z,60.83
2019-03-21T20:04:00.605Z,61.28
2019-03-21T20:06:30.361Z,61.28
2019-03-21T20:08:57.937Z,61.33
2019-03-21T20:11:25.882Z,61.56
2019-03-21T20:13:53.810Z,61.77
2019-03-21T20:16:24.698Z,62.28
2019-03-21T20:18:54.145Z,62.40
2019-03-21T20:21:24.229Z,62.40
2019-03-21T20:23:51.832Z,62.71
2019-03-21T20:26:19.398Z,62.71
2019-03-21T20:28:49.271Z,62.22
2019-03-21T20:31:16.817Z,62.22
2019-03-21T20:33:44.420Z,62.96
2019-03-21T20:36:12.407Z,62.96
2019-03-21T20:38:43.399Z,62.97
2019-03-21T20:41:09.203Z,63.60
2019-03-21T20:43:37.240Z,63.16
2019-03-21T20:46:04.830Z,63.50
2019-03-21T20:48:32.480Z,63.25
2019-03-21T20:51:02.066Z,63.25
2019-03-21T20:53:29.704Z,63.64
2019-03-21T20:55:57.287Z,63.47
2019-03-21T20:58:25.234Z,63.72
2019-03-21T21:00:52.838Z,63.72
2019-03-21T21:03:20.667Z,63.92
2019-03-21T21:05:53.169Z,63.93
2019-03-21T21:08:23.313Z,63.93
2019-03-21T21:10:52.179Z,63.66
2019-03-21T21:13:22.746Z,63.66
2019-03-21T21:15:50.267Z,63.92
2019-03-21T21:18:20.825Z,63.92
2019-03-21T21:20:51.321Z,64.33
2019-03-21T21:23:18.890Z,64.33
2019-03-21T21:25:46.577Z,64.04
2019-03-21T21:28:19.740Z,64.38
2019-03-21T21:30:47.354Z,64.64
2019-03-21T21:33:17.199Z,64.13
2019-03-21T21:35:49.654Z,64.13
2019-03-21T21:38:17.534Z,64.25
2019-03-21T21:40:45.149Z,64.25
2019-03-21T21:43:13.012Z,64.85
2019-03-21T21:45:40.623Z,64.70
2019-03-21T21:48:10.086Z,64.42
2019-03-21T21:50:38.076Z,64.42
2019-03-21T21:53:07.651Z,64.60
2019-03-21T21:55:35.144Z,64.85
2019-03-21T21:58:10.004Z,64.53
2019-03-21T22:00:37.684Z,65.18
2019-03-21T22:03:05.214Z,64.67
2019-03-21T22:05:33.119Z,65.25
2019-03-21T22:08:00.643Z,65.15
2019-03-21T22:10:29.506Z,65.15
2019-03-21T22:12:57.855Z,65.25
2019-03-21T22:15:25.381Z,65.25
2019-03-21T22:17:52.935Z,65.35
2019-03-21T22:20:20.843Z,65.12
2019-03-21T22:22:48.431Z,65.12
2019-03-21T22:25:16.002Z,65.53
2019-03-21T22:27:52.765Z,65.53
2019-03-21T22:30:20.346Z,65.65
2019-03-21T22:32:47.842Z,65.73
2019-03-21T22:35:16.919Z,65.81
2019-03-21T22:37:44.459Z,65.79
2019-03-21T22:40:15.030Z,66.01
2019-03-21T22:42:42.925Z,66.01
2019-03-21T22:45:10.876Z,66.12
2019-03-21T22:47:38.501Z,65.84
2019-03-21T22:50:29.073Z,65.84
2019-03-21T22:52:58.280Z,66.15
2019-03-21T22:55:41.215Z,66.15
2019-03-21T22:58:06.339Z,66.14
2019-03-21T23:00:46.636Z,66.14
2019-03-21T23:03:14.265Z,66.56
2019-03-21T23:05:41.924Z,66.52
2019-03-21T23:08:09.960Z,66.51
2019-03-21T23:10:37.462Z,66.47
2019-03-21T23:13:04.987Z,66.81
2019-03-21T23:15:32.519Z,66.78
2019-03-21T23:18:02.235Z,66.78
2019-03-21T23:20:29.846Z,66.49
2019-03-21T23:22:57.376Z,67.02
2019-03-21T23:25:24.982Z,66.95
2019-03-21T23:27:52.896Z,66.95
2019-03-21T23:30:22.849Z,66.75
2019-03-21T23:32:51.522Z,66.79
2019-03-21T23:35:23.719Z,66.77
2019-03-21T23:37:51.212Z,66.77
2019-03-21T23:40:18.817Z,67.23
2019-03-21T23:42:46.380Z,66.73
2019-03-21T23:45:14.399Z,66.73
2019-03-21T23:47:41.900Z,67.49
2019-03-21T23:50:12.819Z,67.61
2019-03-21T23:52:40.343Z,67.61
2019-03-21T23:55:08.216Z,67.61
2019-03-21T23:57:35.757Z,67.31
